map of PKZ home
PKZ - Airport
Location
City:  Pakse, Lao People's Democratic Republic (Laos)
Name:Pakse International Airport
ICAO:VLPS
IATA:PKZ

Details
Type:Airport (Aerodrome, Airfield)
Use:International (customs port of entry)
Latitude:1507'55"N (15.132053)
Longitude:10546'53"E (105.781417)
Datum:WGS 1984
Elevation:351 ft (107 m)
Variation:0.90W (WMM2015 magnetic declination)
-0.02 annual change
Runways:1
Longest:5332 × 118 ft (1625 × 36 m), paved

Time
Time Zone:UTC+7
Local Time:

Weather
METAR:VLPS 191300Z 14004KT CAVOK 28/20 Q1014 NOSIG
TAF:VLPS 191100Z 1912/2012 18004KT 9999 SCT020 FEW200

Related Locations
Nearby:
Farthest:SPYU: 12396 mi / 19950 km
Yauca, ARE, PE

Find:

   beyond  
but within

Other Information
Maps:
NOTAMs:
Links:
Sources:

  
  • flag of Lao People's Democratic Republic (Laos)
  

Sectional Chart

Flight Planning
at skyvector.com

Satellite Image

Google Maps Satellite view

 

Copyright © 2004-2018 Karl L. Swartz. All rights reserved.
The Great Circle Mapper name and logo are trademarks of the Great Circle Mapper.
All other trademarks mentioned herein belong to their respective owners.
Please see credits for attibutions and further copyright information.

  Follow gcmap on Facebook Follow gcmap on Twitter Follow gcmap on Google+ GCmap on LinkedIn

hCard Microformat

Geo Microformat